createdAt,value
2023-01-17T00:02:28.685Z,8.23
2023-01-17T00:05:15.143Z,7.90
2023-01-17T00:08:01.152Z,9.50
2023-01-17T00:10:29.434Z,7.70
2023-01-17T00:13:03.486Z,7.33
2023-01-17T00:15:32.596Z,5.20
2023-01-17T00:18:00.658Z,7.47
2023-01-17T00:20:50.813Z,7.90
2023-01-17T00:23:41.044Z,7.93
2023-01-17T00:26:19.776Z,7.10
2023-01-17T00:28:49.323Z,6.67
2023-01-17T00:31:18.747Z,6.07
2023-01-17T00:33:46.469Z,5.50
2023-01-17T00:36:14.491Z,4.50
2023-01-17T00:38:43.072Z,4.30
2023-01-17T00:41:15.016Z,4.93
2023-01-17T00:44:01.035Z,4.40
2023-01-17T00:46:47.386Z,3.93
2023-01-17T00:49:40.249Z,4.60
2023-01-17T00:52:26.519Z,4.10
2023-01-17T00:55:12.477Z,4.00
2023-01-17T00:57:58.915Z,4.10
2023-01-17T01:00:45.451Z,3.63
2023-01-17T01:03:32.502Z,3.00
2023-01-17T01:06:23.540Z,3.10
2023-01-17T01:09:10.835Z,3.30
2023-01-17T01:11:57.334Z,2.70
2023-01-17T01:14:44.614Z,3.20
2023-01-17T01:17:30.779Z,3.50
2023-01-17T01:20:17.142Z,2.90
2023-01-17T01:23:13.724Z,2.60
2023-01-17T01:26:14.555Z,3.00
2023-01-17T01:29:03.423Z,2.70
2023-01-17T01:31:49.988Z,2.83
2023-01-17T01:34:18.006Z,2.60
2023-01-17T01:36:45.672Z,2.43
2023-01-17T01:39:13.396Z,2.80
2023-01-17T01:41:41.133Z,3.50
2023-01-17T01:44:53.440Z,2.87
2023-01-17T01:47:40.938Z,3.90
2023-01-17T01:50:13.686Z,3.27
2023-01-17T01:52:52.402Z,3.20
2023-01-17T01:55:38.474Z,2.27
2023-01-17T01:58:27.049Z,2.13
2023-01-17T02:00:54.837Z,1.30
2023-01-17T02:03:31.498Z,1.20
2023-01-17T02:06:28.953Z,1.30
2023-01-17T02:09:06.538Z,1.57
2023-01-17T02:11:39.084Z,1.87
2023-01-17T02:14:20.191Z,1.87
2023-01-17T02:17:46.596Z,1.63
2023-01-17T02:21:19.157Z,1.63
2023-01-17T02:24:59.871Z,3.60
2023-01-17T02:27:56.546Z,3.30
2023-01-17T02:30:47.925Z,4.60
2023-01-17T02:33:50.568Z,2.63
2023-01-17T02:36:38.074Z,3.27
2023-01-17T02:39:24.856Z,2.77
2023-01-17T02:42:06.377Z,2.20
2023-01-17T02:44:44.171Z,1.97
2023-01-17T02:47:32.823Z,1.50
2023-01-17T02:50:30.988Z,1.70
2023-01-17T02:53:42.435Z,1.37
2023-01-17T02:56:48.484Z,1.40
2023-01-17T03:00:03.693Z,1.60
2023-01-17T03:02:51.794Z,1.50
2023-01-17T03:05:47.578Z,1.50
2023-01-17T03:08:17.731Z,2.50
2023-01-17T03:10:46.356Z,2.57
2023-01-17T03:13:14.231Z,3.23
2023-01-17T03:15:42.646Z,3.50
2023-01-17T03:18:17.327Z,3.90
2023-01-17T03:20:45.103Z,3.30
2023-01-17T03:23:12.727Z,3.63
2023-01-17T03:25:40.426Z,4.27
2023-01-17T03:28:08.027Z,3.13
2023-01-17T03:30:35.731Z,3.43
2023-01-17T03:33:03.688Z,3.63
2023-01-17T03:35:32.845Z,3.67
2023-01-17T03:38:00.911Z,4.00
2023-01-17T03:40:28.654Z,5.13
2023-01-17T03:42:56.341Z,5.00
2023-01-17T03:45:24.025Z,4.37
2023-01-17T03:47:51.921Z,3.33
2023-01-17T03:50:19.631Z,4.30
2023-01-17T03:52:47.965Z,3.73
2023-01-17T03:55:16.266Z,3.77
2023-01-17T03:57:44.011Z,4.03
2023-01-17T04:00:13.578Z,3.43
2023-01-17T04:02:41.293Z,3.93
2023-01-17T04:05:09.977Z,3.10
2023-01-17T04:07:38.264Z,4.40
2023-01-17T04:10:07.562Z,3.37
2023-01-17T04:12:35.190Z,4.90
2023-01-17T04:15:02.969Z,5.47
2023-01-17T04:17:30.902Z,5.93
2023-01-17T04:19:59.294Z,5.93
2023-01-17T04:22:27.034Z,6.17
2023-01-17T04:24:55.765Z,6.27
2023-01-17T04:27:39.489Z,6.00
2023-01-17T04:30:11.419Z,6.30
2023-01-17T04:32:39.143Z,6.40
2023-01-17T04:35:09.534Z,7.00
2023-01-17T04:37:38.658Z,7.10
2023-01-17T04:40:08.384Z,8.43
2023-01-17T04:42:36.341Z,8.63
2023-01-17T04:45:06.198Z,9.10
2023-01-17T04:47:37.050Z,9.50
2023-01-17T04:50:06.160Z,10.70
2023-01-17T04:52:34.118Z,9.70
2023-01-17T04:55:02.802Z,13.30
2023-01-17T04:57:30.732Z,10.80
2023-01-17T04:59:58.554Z,13.90
2023-01-17T05:02:26.373Z,12.60
2023-01-17T05:04:54.163Z,12.03
2023-01-17T05:07:21.808Z,12.40
2023-01-17T05:09:49.561Z,12.17
2023-01-17T05:12:18.037Z,9.17
2023-01-17T05:14:45.749Z,9.00
2023-01-17T05:17:13.478Z,9.50
2023-01-17T05:19:41.201Z,8.80
2023-01-17T05:22:16.455Z,8.80
2023-01-17T05:24:48.420Z,9.00
2023-01-17T05:27:16.552Z,7.13
2023-01-17T05:29:44.168Z,7.60
2023-01-17T05:32:11.910Z,6.10
2023-01-17T05:34:39.585Z,6.47
2023-01-17T05:37:07.240Z,5.50
2023-01-17T05:39:34.885Z,5.40
2023-01-17T05:42:02.556Z,3.73
2023-01-17T05:44:30.223Z,4.20
2023-01-17T05:46:58.216Z,4.73
2023-01-17T05:49:26.270Z,5.70
2023-01-17T05:51:54.999Z,4.60
2023-01-17T05:54:22.803Z,4.87
2023-01-17T05:56:50.532Z,5.00
2023-01-17T05:59:25.604Z,4.90
2023-01-17T06:02:00.594Z,5.40
2023-01-17T06:04:28.313Z,6.30
2023-01-17T06:06:55.998Z,5.53
2023-01-17T06:09:23.790Z,5.20
2023-01-17T06:11:52.059Z,6.30
2023-01-17T06:14:19.635Z,7.40
2023-01-17T06:16:47.945Z,7.00
2023-01-17T06:19:15.670Z,6.37
2023-01-17T06:21:43.300Z,6.90
2023-01-17T06:24:10.962Z,8.17
2023-01-17T06:26:38.595Z,9.10
2023-01-17T06:29:06.266Z,9.80
2023-01-17T06:31:33.890Z,9.37
2023-01-17T06:34:05.631Z,10.60
2023-01-17T06:36:36.004Z,11.67
2023-01-17T06:39:10.979Z,11.53
2023-01-17T06:41:39.939Z,14.07
2023-01-17T06:44:09.676Z,14.57
2023-01-17T06:46:48.931Z,16.20
2023-01-17T06:49:29.598Z,15.83
2023-01-17T06:51:59.919Z,15.70
2023-01-17T06:54:27.537Z,16.27
2023-01-17T06:56:55.235Z,18.30
2023-01-17T06:59:22.905Z,17.30
2023-01-17T07:01:50.732Z,18.70
2023-01-17T07:04:18.381Z,18.40
2023-01-17T07:06:46.148Z,17.33
2023-01-17T07:09:13.909Z,18.33
2023-01-17T07:11:41.601Z,16.50
2023-01-17T07:14:14.675Z,17.60
2023-01-17T07:16:46.216Z,17.17
2023-01-17T07:19:14.094Z,16.43
2023-01-17T07:21:41.706Z,17.97
2023-01-17T07:24:09.891Z,18.83
2023-01-17T07:26:38.131Z,17.53
2023-01-17T07:29:06.374Z,20.07
2023-01-17T07:31:36.781Z,17.03
2023-01-17T07:34:04.634Z,17.83
2023-01-17T07:36:32.599Z,22.20
2023-01-17T07:39:00.361Z,21.87
2023-01-17T07:41:28.123Z,21.23
2023-01-17T07:43:56.473Z,20.73
2023-01-17T07:46:24.247Z,19.97
2023-01-17T07:48:51.871Z,20.40
2023-01-17T07:51:19.605Z,21.20
2023-01-17T07:53:47.324Z,19.60
2023-01-17T07:56:14.971Z,23.30
2023-01-17T07:58:43.060Z,25.33
2023-01-17T08:01:15.314Z,23.73
2023-01-17T08:03:43.649Z,24.00
2023-01-17T08:06:25.478Z,23.70
2023-01-17T08:08:59.140Z,22.33
2023-01-17T08:11:27.191Z,23.40
2023-01-17T08:13:59.524Z,22.20
2023-01-17T08:16:30.554Z,24.73
2023-01-17T08:18:58.372Z,23.90
2023-01-17T08:21:26.132Z,23.50
2023-01-17T08:23:53.884Z,23.47
2023-01-17T08:26:23.387Z,24.33
2023-01-17T08:29:01.172Z,23.63
2023-01-17T08:31:35.113Z,24.73
2023-01-17T08:34:02.986Z,22.97
2023-01-17T08:36:35.990Z,23.43
2023-01-17T08:39:21.616Z,23.73
2023-01-17T08:41:51.773Z,24.27
2023-01-17T08:44:20.158Z,23.07
2023-01-17T08:46:47.963Z,22.93
2023-01-17T08:49:16.060Z,26.87
2023-01-17T08:51:43.786Z,25.20
2023-01-17T08:54:13.076Z,24.30
2023-01-17T08:56:42.888Z,26.07
2023-01-17T08:59:12.482Z,25.37
2023-01-17T09:01:46.210Z,23.43
2023-01-17T09:04:15.587Z,24.70
2023-01-17T09:06:47.478Z,22.30
2023-01-17T09:09:17.912Z,22.60
2023-01-17T09:11:45.692Z,22.30
2023-01-17T09:14:14.485Z,23.37
2023-01-17T09:16:42.620Z,20.73
2023-01-17T09:19:10.593Z,21.40
2023-01-17T09:21:38.265Z,21.67
2023-01-17T09:24:06.503Z,19.43
2023-01-17T09:26:34.741Z,21.00
2023-01-17T09:29:02.490Z,20.07
2023-01-17T09:31:30.251Z,20.23
2023-01-17T09:33:59.560Z,21.43
2023-01-17T09:36:29.294Z,24.27
2023-01-17T09:39:03.976Z,22.10
2023-01-17T09:42:39.414Z,23.47
2023-01-17T09:45:20.027Z,22.10
2023-01-17T09:47:53.992Z,20.47
2023-01-17T09:50:55.977Z,21.03
2023-01-17T09:53:24.109Z,20.60
2023-01-17T09:56:14.675Z,17.73
2023-01-17T09:59:18.760Z,20.43
2023-01-17T10:02:18.274Z,19.23
2023-01-17T10:05:36.730Z,19.27
2023-01-17T10:08:32.040Z,20.63
2023-01-17T10:11:45.462Z,19.43
2023-01-17T10:15:13.241Z,19.97
2023-01-17T10:18:30.510Z,19.07
2023-01-17T10:21:21.199Z,20.17
2023-01-17T10:24:24.779Z,21.00
2023-01-17T10:26:57.777Z,20.10
2023-01-17T10:29:35.491Z,22.10
2023-01-17T10:32:04.289Z,21.83
2023-01-17T10:34:47.628Z,21.03
2023-01-17T10:37:45.509Z,18.37
2023-01-17T10:40:50.326Z,20.80
2023-01-17T10:44:10.500Z,20.33
2023-01-17T10:47:10.629Z,20.57
2023-01-17T10:49:54.555Z,18.57
2023-01-17T10:52:53.418Z,18.33
2023-01-17T10:55:53.543Z,18.70
2023-01-17T10:58:21.702Z,17.20
2023-01-17T11:01:17.501Z,18.70
2023-01-17T11:03:51.918Z,17.40
2023-01-17T11:06:27.476Z,15.50
2023-01-17T11:09:02.179Z,16.17
2023-01-17T11:11:37.572Z,18.67
2023-01-17T11:14:26.383Z,16.23
2023-01-17T11:17:14.124Z,17.60
2023-01-17T11:19:53.494Z,16.60
2023-01-17T11:22:22.884Z,14.63
2023-01-17T11:24:56.351Z,15.03
2023-01-17T11:27:37.708Z,14.77
2023-01-17T11:30:21.119Z,15.83
2023-01-17T11:33:08.914Z,15.70
2023-01-17T11:35:45.503Z,15.27
2023-01-17T11:38:23.992Z,14.93
2023-01-17T11:41:13.501Z,15.10
2023-01-17T11:44:25.852Z,14.53
2023-01-17T11:47:19.769Z,15.17
2023-01-17T11:49:50.217Z,14.50
2023-01-17T11:52:39.205Z,13.07
2023-01-17T11:55:07.522Z,14.77
2023-01-17T11:57:37.081Z,12.77
2023-01-17T12:00:46.074Z,13.13
2023-01-17T12:04:25.240Z,11.27
2023-01-17T12:07:35.207Z,11.23
2023-01-17T12:10:39.207Z,12.60
2023-01-17T12:14:04.109Z,13.00
2023-01-17T12:17:34.979Z,12.37
2023-01-17T12:20:16.700Z,10.60
2023-01-17T12:23:34.559Z,11.87
2023-01-17T12:26:40.752Z,12.37
2023-01-17T12:30:22.679Z,11.50
2023-01-17T12:33:34.800Z,13.77
2023-01-17T12:36:50.377Z,14.00
2023-01-17T12:39:38.350Z,12.10
2023-01-17T12:42:18.746Z,12.63
2023-01-17T12:45:23.780Z,11.63
2023-01-17T12:48:11.597Z,13.13
2023-01-17T12:51:10.756Z,14.83
2023-01-17T12:54:24.282Z,13.40
2023-01-17T12:57:18.911Z,13.63
2023-01-17T13:00:23.173Z,13.20
2023-01-17T13:03:32.742Z,11.33
2023-01-17T13:06:06.536Z,11.37
2023-01-17T13:08:49.769Z,11.33
2023-01-17T13:11:51.980Z,10.73
2023-01-17T13:14:19.874Z,10.90
2023-01-17T13:17:45.169Z,9.50
2023-01-17T13:21:19.310Z,11.63
2023-01-17T13:24:51.899Z,9.43
2023-01-17T13:28:23.195Z,9.67
2023-01-17T13:32:22.153Z,10.90
2023-01-17T13:35:40.707Z,10.20
2023-01-17T13:38:42.619Z,10.00
2023-01-17T13:41:45.175Z,11.37
2023-01-17T13:44:21.705Z,13.20
2023-01-17T13:47:10.704Z,11.93
2023-01-17T13:49:56.308Z,11.07
2023-01-17T13:52:33.287Z,11.43
2023-01-17T13:55:07.368Z,11.80
2023-01-17T13:57:43.789Z,11.70
2023-01-17T14:00:21.500Z,11.20
2023-01-17T14:02:52.919Z,12.83
2023-01-17T14:05:56.818Z,11.53
2023-01-17T14:08:27.567Z,11.63
2023-01-17T14:11:09.807Z,12.27
2023-01-17T14:13:41.834Z,13.07
2023-01-17T14:16:29.712Z,11.03
2023-01-17T14:18:57.666Z,10.40
2023-01-17T14:21:32.405Z,10.67
2023-01-17T14:24:20.139Z,12.63
2023-01-17T14:27:24.369Z,12.53
2023-01-17T14:30:07.553Z,12.30
2023-01-17T14:32:39.551Z,9.80
2023-01-17T14:35:23.581Z,11.10
2023-01-17T14:37:59.361Z,10.77
2023-01-17T14:40:31.905Z,12.00
2023-01-17T14:43:18.988Z,11.20
2023-01-17T14:45:48.183Z,9.20
2023-01-17T14:48:23.693Z,9.60
2023-01-17T14:51:00.134Z,9.13
2023-01-17T14:53:34.002Z,8.97
2023-01-17T14:56:15.450Z,8.57
2023-01-17T14:58:46.531Z,8.93
2023-01-17T15:01:20.486Z,7.37
2023-01-17T15:03:57.242Z,7.17
2023-01-17T15:06:42.187Z,6.97
2023-01-17T15:09:35.769Z,6.67
2023-01-17T15:12:08.740Z,7.10
2023-01-17T15:14:45.785Z,7.20
2023-01-17T15:17:27.476Z,8.23
2023-01-17T15:20:18.197Z,8.43
2023-01-17T15:22:46.939Z,6.77
2023-01-17T15:25:16.316Z,7.07
2023-01-17T15:27:44.304Z,6.27
2023-01-17T15:30:17.140Z,7.33
2023-01-17T15:32:49.434Z,7.30
2023-01-17T15:35:21.258Z,8.30
2023-01-17T15:37:58.532Z,6.60
2023-01-17T15:40:28.293Z,8.53
2023-01-17T15:43:05.554Z,8.63
2023-01-17T15:45:37.324Z,8.50
2023-01-17T15:48:41.507Z,9.30
2023-01-17T15:51:13.623Z,10.23
2023-01-17T15:53:44.169Z,9.30
2023-01-17T15:56:33.893Z,7.83
2023-01-17T15:59:40.423Z,7.13
2023-01-17T16:02:43.782Z,8.33
2023-01-17T16:05:31.195Z,7.87
2023-01-17T16:08:38.599Z,7.77
2023-01-17T16:11:11.861Z,8.30
2023-01-17T16:13:42.491Z,9.63
2023-01-17T16:16:26.633Z,10.33
2023-01-17T16:19:03.241Z,9.33
2023-01-17T16:21:32.537Z,9.20
2023-01-17T16:24:03.260Z,9.40
2023-01-17T16:26:31.147Z,10.00
2023-01-17T16:28:58.963Z,9.50
2023-01-17T16:31:26.916Z,8.80
2023-01-17T16:33:54.714Z,8.53
2023-01-17T16:36:23.129Z,9.30
2023-01-17T16:38:53.251Z,8.90
2023-01-17T16:41:22.256Z,10.23
2023-01-17T16:44:10.490Z,9.70
2023-01-17T16:46:38.797Z,10.40
2023-01-17T16:49:11.256Z,11.53
2023-01-17T16:51:39.408Z,12.57
2023-01-17T16:54:07.246Z,11.93
2023-01-17T16:56:35.476Z,10.57
2023-01-17T16:59:03.590Z,10.60
2023-01-17T17:01:32.684Z,11.17
2023-01-17T17:04:00.364Z,12.77
2023-01-17T17:06:28.081Z,11.60
2023-01-17T17:08:55.805Z,13.23
2023-01-17T17:11:24.788Z,11.30
2023-01-17T17:13:55.905Z,12.50
2023-01-17T17:16:30.383Z,11.87
2023-01-17T17:19:06.927Z,10.47
2023-01-17T17:21:40.483Z,10.10
2023-01-17T17:24:11.492Z,11.27
2023-01-17T17:26:41.327Z,11.03
2023-01-17T17:29:14.344Z,11.87
2023-01-17T17:31:43.846Z,11.47
2023-01-17T17:34:16.093Z,12.37
2023-01-17T17:36:44.672Z,13.67
2023-01-17T17:39:15.862Z,13.03
2023-01-17T17:41:46.057Z,12.97
2023-01-17T17:44:13.856Z,12.03
2023-01-17T17:46:43.068Z,13.23
2023-01-17T17:49:11.157Z,13.10
2023-01-17T17:51:41.442Z,14.20
2023-01-17T17:54:14.741Z,13.80
2023-01-17T17:56:47.577Z,12.40
2023-01-17T17:59:20.297Z,13.47
2023-01-17T18:01:49.195Z,14.30
2023-01-17T18:04:18.114Z,15.67
2023-01-17T18:06:46.484Z,13.80
2023-01-17T18:09:16.449Z,16.60
2023-01-17T18:11:45.261Z,16.80
2023-01-17T18:14:16.542Z,15.90
2023-01-17T18:16:45.402Z,15.30
2023-01-17T18:19:24.858Z,16.20
2023-01-17T18:21:53.901Z,17.20
2023-01-17T18:24:25.475Z,16.37
2023-01-17T18:26:58.448Z,17.17
2023-01-17T18:29:28.769Z,17.30
2023-01-17T18:31:56.994Z,16.97
2023-01-17T18:34:29.575Z,17.83
2023-01-17T18:36:58.591Z,18.03
2023-01-17T18:39:30.167Z,18.87
2023-01-17T18:41:59.419Z,17.67
2023-01-17T18:44:28.172Z,16.40
2023-01-17T18:47:04.603Z,15.60
2023-01-17T18:49:34.140Z,18.53
2023-01-17T18:52:02.554Z,18.63
2023-01-17T18:54:30.328Z,19.13
2023-01-17T18:56:58.623Z,20.30
2023-01-17T18:59:26.391Z,18.70
2023-01-17T19:01:58.932Z,18.17
2023-01-17T19:04:28.504Z,20.07
2023-01-17T19:06:56.170Z,19.20
2023-01-17T19:09:24.090Z,18.67
2023-01-17T19:11:51.818Z,21.93
2023-01-17T19:14:19.573Z,19.80
2023-01-17T19:16:47.335Z,20.50
2023-01-17T19:19:16.622Z,20.90
2023-01-17T19:21:44.839Z,22.47
2023-01-17T19:24:14.414Z,22.83
2023-01-17T19:26:43.403Z,21.20
2023-01-17T19:29:12.339Z,20.37
2023-01-17T19:31:43.419Z,21.70
2023-01-17T19:34:18.911Z,18.83
2023-01-17T19:36:47.364Z,19.53
2023-01-17T19:39:15.070Z,17.23
2023-01-17T19:41:46.023Z,19.50
2023-01-17T19:44:15.234Z,18.80
2023-01-17T19:46:44.243Z,20.27
2023-01-17T19:49:12.292Z,17.60
2023-01-17T19:51:40.399Z,18.30
2023-01-17T19:54:08.632Z,17.37
2023-01-17T19:56:36.843Z,18.63
2023-01-17T19:59:04.745Z,18.00
2023-01-17T20:01:35.224Z,18.20
2023-01-17T20:04:05.030Z,19.10
2023-01-17T20:06:36.919Z,20.03
2023-01-17T20:09:07.344Z,18.03
2023-01-17T20:11:36.561Z,19.40
2023-01-17T20:14:05.842Z,18.60
2023-01-17T20:16:37.871Z,18.60
2023-01-17T20:19:06.329Z,17.70
2023-01-17T20:21:34.575Z,18.97
2023-01-17T20:24:04.708Z,18.97
2023-01-17T20:26:36.345Z,17.77
2023-01-17T20:29:15.160Z,18.57
2023-01-17T20:31:52.492Z,21.10
2023-01-17T20:34:21.536Z,22.37
2023-01-17T20:36:49.204Z,23.70
2023-01-17T20:39:19.846Z,21.00
2023-01-17T20:41:49.425Z,20.50
2023-01-17T20:44:19.650Z,21.43
2023-01-17T20:46:48.407Z,21.50
2023-01-17T20:49:20.254Z,20.70
2023-01-17T20:51:51.955Z,21.50
2023-01-17T20:54:23.853Z,21.53
2023-01-17T20:56:58.731Z,25.37
2023-01-17T20:59:26.796Z,26.03
2023-01-17T21:01:54.738Z,23.60
2023-01-17T21:04:26.047Z,21.67
2023-01-17T21:06:54.987Z,20.73
2023-01-17T21:09:22.859Z,22.57
2023-01-17T21:11:51.985Z,23.20
2023-01-17T21:14:21.916Z,25.53
2023-01-17T21:16:50.459Z,37.77
2023-01-17T21:19:23.915Z,35.17
2023-01-17T21:21:51.594Z,39.60
2023-01-17T21:24:20.353Z,38.40
2023-01-17T21:26:51.484Z,36.27
2023-01-17T21:29:19.544Z,36.07
2023-01-17T21:31:47.383Z,40.57
2023-01-17T21:34:15.349Z,44.43
2023-01-17T21:36:44.136Z,42.90
2023-01-17T21:39:20.019Z,40.90
2023-01-17T21:41:50.860Z,39.70
2023-01-17T21:44:24.272Z,39.17
2023-01-17T21:46:55.077Z,36.90
2023-01-17T21:49:29.651Z,40.00
2023-01-17T21:51:58.418Z,38.17
2023-01-17T21:54:49.066Z,41.67
2023-01-17T21:57:41.762Z,41.50
2023-01-17T22:00:15.643Z,41.10
2023-01-17T22:02:48.882Z,41.27
2023-01-17T22:05:18.899Z,40.97
2023-01-17T22:08:06.114Z,44.90
2023-01-17T22:10:44.701Z,44.47
2023-01-17T22:13:18.681Z,40.87
2023-01-17T22:15:59.066Z,45.00
2023-01-17T22:18:38.401Z,47.30
2023-01-17T22:21:24.438Z,44.63
2023-01-17T22:23:59.326Z,50.60
2023-01-17T22:26:31.648Z,48.20
2023-01-17T22:29:04.479Z,47.20
2023-01-17T22:31:32.379Z,51.50
2023-01-17T22:34:05.908Z,49.40
2023-01-17T22:36:35.272Z,49.70
2023-01-17T22:39:03.195Z,47.30
2023-01-17T22:41:33.060Z,49.23
2023-01-17T22:44:02.603Z,47.17
2023-01-17T22:46:37.254Z,48.00
2023-01-17T22:49:08.464Z,47.20
2023-01-17T22:51:36.570Z,49.53
2023-01-17T22:54:04.409Z,45.57
2023-01-17T22:56:34.336Z,44.83
2023-01-17T22:59:02.823Z,42.67
2023-01-17T23:01:33.050Z,43.27
2023-01-17T23:04:05.740Z,39.90
2023-01-17T23:06:40.836Z,39.37
2023-01-17T23:09:17.327Z,36.77
2023-01-17T23:11:55.362Z,39.47
2023-01-17T23:14:29.936Z,48.10
2023-01-17T23:17:22.798Z,43.23
2023-01-17T23:19:54.823Z,44.50
2023-01-17T23:22:27.444Z,42.43
2023-01-17T23:25:01.921Z,44.13
2023-01-17T23:28:05.783Z,37.30
2023-01-17T23:30:42.178Z,35.90
2023-01-17T23:33:15.833Z,37.00
2023-01-17T23:35:46.630Z,36.67
2023-01-17T23:38:33.738Z,36.20
2023-01-17T23:41:28.321Z,38.10
2023-01-17T23:43:59.048Z,36.10
2023-01-17T23:46:27.665Z,38.33
2023-01-17T23:48:55.489Z,37.80
2023-01-17T23:51:23.573Z,35.30
2023-01-17T23:53:57.531Z,35.97
2023-01-17T23:56:25.762Z,36.00
2023-01-17T23:58:53.539Z,34.47
